CheckWX is a tool to help pilots better visualize weather data.  It is not intended as a substitute for an official pre-flight weather briefing.

14:04:34 UTC

UIII METAR
Irkutsk Airport
Irkutsk, Russian Federation
Current

35 mins ago

UIII 051330Z 19002MPS CAVOK M00/M07 Q1034 R12/CLRD60 NOSIG RMK QFE732/0977
Observed
Apr-5 @ 13:30 UTC
Wind
  • 190° at 4 KTS
Visibility
10,000+ meters
Flight Rules
VFR
Cloud Levels
  • Clear skies
Temperature
C / 32°F
Dewpoint
-7°C / 19°F
Humidity
60%
Altimeter
30.53" Hg
Pressure
1033.92 hPa
Previous

1 hour ago

UIII 051300Z 18002MPS CAVOK M00/M07 Q1034 R12/CLRD60 NOSIG RMK QFE732/0977
Observed
Apr-5 @ 13:00 UTC
Wind
  • 180° at 4 KTS
Visibility
10,000+ meters
Flight Rules
VFR
Cloud Levels
  • Clear skies
Temperature
C / 32°F
Dewpoint
-7°C / 19°F
Humidity
60%
Altimeter
30.53" Hg
Pressure
1033.92 hPa
Previous

2 hours ago

UIII 051230Z 19003MPS CAVOK 01/M06 Q1034 R12/CLRD60 NOSIG RMK QFE732/0976
Observed
Apr-5 @ 12:30 UTC
Wind
  • 190° at 6 KTS
Visibility
10,000+ meters
Flight Rules
VFR
Cloud Levels
  • Clear skies
Temperature
C / 34°F
Dewpoint
-6°C / 21°F
Humidity
60%
Altimeter
30.53" Hg
Pressure
1033.92 hPa